sensor_id;sensor_type;location;lat;lon;timestamp;temperature;humidity
25200;DHT22;33094;48.782;9.162;2023-06-14T00:09:40;17.50;79.50
25200;DHT22;33094;48.782;9.162;2023-06-14T00:12:06;17.50;79.40
25200;DHT22;33094;48.782;9.162;2023-06-14T00:14:31;17.40;79.60
25200;DHT22;33094;48.782;9.162;2023-06-14T00:16:57;17.40;79.60
25200;DHT22;33094;48.782;9.162;2023-06-14T00:19:24;17.40;79.70
25200;DHT22;33094;48.782;9.162;2023-06-14T00:21:50;17.30;79.30
25200;DHT22;33094;48.782;9.162;2023-06-14T00:24:17;17.50;79.40
25200;DHT22;33094;48.782;9.162;2023-06-14T00:26:42;17.70;79.30
25200;DHT22;33094;48.782;9.162;2023-06-14T00:29:08;17.90;79.40
25200;DHT22;33094;48.782;9.162;2023-06-14T00:31:33;17.90;79.10
25200;DHT22;33094;48.782;9.162;2023-06-14T00:33:59;18.00;79.30
25200;DHT22;33094;48.782;9.162;2023-06-14T00:36:24;18.10;80.00
25200;DHT22;33094;48.782;9.162;2023-06-14T00:38:50;18.20;80.00
25200;DHT22;33094;48.782;9.162;2023-06-14T00:41:15;18.20;79.60
25200;DHT22;33094;48.782;9.162;2023-06-14T00:43:41;18.10;79.60
25200;DHT22;33094;48.782;9.162;2023-06-14T00:46:06;17.90;79.90
25200;DHT22;33094;48.782;9.162;2023-06-14T00:48:32;17.70;80.50
25200;DHT22;33094;48.782;9.162;2023-06-14T00:50:58;17.70;80.60
25200;DHT22;33094;48.782;9.162;2023-06-14T00:53:27;17.30;80.70
25200;DHT22;33094;48.782;9.162;2023-06-14T00:55:52;17.00;81.20
25200;DHT22;33094;48.782;9.162;2023-06-14T00:58:18;16.80;81.10
25200;DHT22;33094;48.782;9.162;2023-06-14T01:00:44;16.60;81.30
25200;DHT22;33094;48.782;9.162;2023-06-14T01:03:10;16.60;81.60
25200;DHT22;33094;48.782;9.162;2023-06-14T01:05:37;16.50;81.70
25200;DHT22;33094;48.782;9.162;2023-06-14T01:10:52;16.60;82.20
25200;DHT22;33094;48.782;9.162;2023-06-14T01:13:29;16.60;82.20
25200;DHT22;33094;48.782;9.162;2023-06-14T01:15:57;16.60;82.50
25200;DHT22;33094;48.782;9.162;2023-06-14T01:18:23;16.70;82.80
25200;DHT22;33094;48.782;9.162;2023-06-14T01:20:49;16.60;82.80
25200;DHT22;33094;48.782;9.162;2023-06-14T01:23:18;16.70;82.60
25200;DHT22;33094;48.782;9.162;2023-06-14T01:25:44;16.90;82.60
25200;DHT22;33094;48.782;9.162;2023-06-14T01:28:10;17.10;82.40
25200;DHT22;33094;48.782;9.162;2023-06-14T01:30:39;17.10;82.20
25200;DHT22;33094;48.782;9.162;2023-06-14T01:33:16;17.20;82.30
25200;DHT22;33094;48.782;9.162;2023-06-14T01:35:46;17.30;82.50
25200;DHT22;33094;48.782;9.162;2023-06-14T01:38:12;17.30;82.70
25200;DHT22;33094;48.782;9.162;2023-06-14T01:40:39;17.20;83.00
25200;DHT22;33094;48.782;9.162;2023-06-14T01:43:04;17.00;83.30
25200;DHT22;33094;48.782;9.162;2023-06-14T01:45:31;16.60;83.50
25200;DHT22;33094;48.782;9.162;2023-06-14T01:47:56;16.50;84.00
25200;DHT22;33094;48.782;9.162;2023-06-14T01:50:22;16.40;84.30
25200;DHT22;33094;48.782;9.162;2023-06-14T01:52:48;16.40;84.00
25200;DHT22;33094;48.782;9.162;2023-06-14T01:55:13;16.30;84.60
25200;DHT22;33094;48.782;9.162;2023-06-14T01:57:39;16.20;84.50
25200;DHT22;33094;48.782;9.162;2023-06-14T02:00:05;16.00;84.50
25200;DHT22;33094;48.782;9.162;2023-06-14T02:02:35;16.00;85.00
25200;DHT22;33094;48.782;9.162;2023-06-14T02:05:01;15.90;85.10
25200;DHT22;33094;48.782;9.162;2023-06-14T02:07:27;15.90;84.80
25200;DHT22;33094;48.782;9.162;2023-06-14T02:09:52;15.80;85.00
25200;DHT22;33094;48.782;9.162;2023-06-14T02:12:18;15.70;85.30
25200;DHT22;33094;48.782;9.162;2023-06-14T02:14:43;15.90;85.40
25200;DHT22;33094;48.782;9.162;2023-06-14T02:17:09;15.90;85.40
25200;DHT22;33094;48.782;9.162;2023-06-14T02:19:35;15.90;85.50
25200;DHT22;33094;48.782;9.162;2023-06-14T02:22:01;15.90;85.40
25200;DHT22;33094;48.782;9.162;2023-06-14T02:24:26;16.00;85.40
25200;DHT22;33094;48.782;9.162;2023-06-14T02:26:52;16.00;85.40
25200;DHT22;33094;48.782;9.162;2023-06-14T02:29:18;15.90;85.60
25200;DHT22;33094;48.782;9.162;2023-06-14T02:31:43;15.70;86.00
25200;DHT22;33094;48.782;9.162;2023-06-14T02:34:09;15.70;86.40
25200;DHT22;33094;48.782;9.162;2023-06-14T02:36:34;15.70;86.30
25200;DHT22;33094;48.782;9.162;2023-06-14T02:39:00;15.70;86.40
25200;DHT22;33094;48.782;9.162;2023-06-14T02:41:26;15.80;86.50
25200;DHT22;33094;48.782;9.162;2023-06-14T02:43:52;15.90;86.00
25200;DHT22;33094;48.782;9.162;2023-06-14T02:46:18;15.70;86.60
25200;DHT22;33094;48.782;9.162;2023-06-14T02:48:43;15.60;86.70
25200;DHT22;33094;48.782;9.162;2023-06-14T02:51:09;15.40;87.20
25200;DHT22;33094;48.782;9.162;2023-06-14T02:53:35;15.20;87.40
25200;DHT22;33094;48.782;9.162;2023-06-14T02:56:01;15.10;87.50
25200;DHT22;33094;48.782;9.162;2023-06-14T02:58:26;15.00;87.80
25200;DHT22;33094;48.782;9.162;2023-06-14T03:00:52;15.00;88.20
25200;DHT22;33094;48.782;9.162;2023-06-14T03:03:18;14.90;87.50
25200;DHT22;33094;48.782;9.162;2023-06-14T03:05:44;14.90;87.50
25200;DHT22;33094;48.782;9.162;2023-06-14T03:08:15;15.00;87.50
25200;DHT22;33094;48.782;9.162;2023-06-14T03:10:43;15.00;87.60
25200;DHT22;33094;48.782;9.162;2023-06-14T03:13:08;15.10;88.00
25200;DHT22;33094;48.782;9.162;2023-06-14T03:15:36;15.10;88.00
25200;DHT22;33094;48.782;9.162;2023-06-14T03:18:01;15.20;88.10
25200;DHT22;33094;48.782;9.162;2023-06-14T03:20:27;15.20;88.10
25200;DHT22;33094;48.782;9.162;2023-06-14T03:22:55;15.20;87.80
25200;DHT22;33094;48.782;9.162;2023-06-14T03:25:20;15.30;88.10
25200;DHT22;33094;48.782;9.162;2023-06-14T03:27:47;15.40;88.00
25200;DHT22;33094;48.782;9.162;2023-06-14T03:30:13;15.40;87.70
25200;DHT22;33094;48.782;9.162;2023-06-14T03:32:38;15.60;87.50
25200;DHT22;33094;48.782;9.162;2023-06-14T03:35:04;15.70;87.20
25200;DHT22;33094;48.782;9.162;2023-06-14T03:37:30;15.60;87.40
25200;DHT22;33094;48.782;9.162;2023-06-14T03:39:55;15.70;87.30
25200;DHT22;33094;48.782;9.162;2023-06-14T03:42:21;15.70;87.30
25200;DHT22;33094;48.782;9.162;2023-06-14T03:44:47;15.80;87.10
25200;DHT22;33094;48.782;9.162;2023-06-14T03:47:12;15.80;87.20
25200;DHT22;33094;48.782;9.162;2023-06-14T03:49:37;15.70;87.40
25200;DHT22;33094;48.782;9.162;2023-06-14T03:52:03;15.60;87.70
25200;DHT22;33094;48.782;9.162;2023-06-14T03:54:29;15.60;88.00
25200;DHT22;33094;48.782;9.162;2023-06-14T03:56:54;15.70;87.80
25200;DHT22;33094;48.782;9.162;2023-06-14T03:59:22;15.60;88.30
25200;DHT22;33094;48.782;9.162;2023-06-14T04:01:48;15.50;88.50
25200;DHT22;33094;48.782;9.162;2023-06-14T04:04:14;15.60;88.40
25200;DHT22;33094;48.782;9.162;2023-06-14T04:06:41;15.40;88.40
25200;DHT22;33094;48.782;9.162;2023-06-14T04:09:08;15.50;88.60
25200;DHT22;33094;48.782;9.162;2023-06-14T04:11:33;15.50;88.30
25200;DHT22;33094;48.782;9.162;2023-06-14T04:13:59;15.60;88.40
25200;DHT22;33094;48.782;9.162;2023-06-14T04:16:25;15.70;87.90
25200;DHT22;33094;48.782;9.162;2023-06-14T04:18:51;15.80;87.60
25200;DHT22;33094;48.782;9.162;2023-06-14T04:21:17;15.50;88.30
25200;DHT22;33094;48.782;9.162;2023-06-14T04:23:43;15.30;88.60
25200;DHT22;33094;48.782;9.162;2023-06-14T04:26:09;15.20;88.90
25200;DHT22;33094;48.782;9.162;2023-06-14T04:28:35;15.10;89.10
25200;DHT22;33094;48.782;9.162;2023-06-14T04:31:06;15.00;89.20
25200;DHT22;33094;48.782;9.162;2023-06-14T04:33:36;15.10;89.20
25200;DHT22;33094;48.782;9.162;2023-06-14T04:36:09;15.20;89.20
25200;DHT22;33094;48.782;9.162;2023-06-14T04:38:37;15.10;89.40
25200;DHT22;33094;48.782;9.162;2023-06-14T04:41:02;15.10;89.50
25200;DHT22;33094;48.782;9.162;2023-06-14T04:43:28;15.10;89.50
25200;DHT22;33094;48.782;9.162;2023-06-14T04:45:53;15.10;89.70
25200;DHT22;33094;48.782;9.162;2023-06-14T04:48:21;15.20;89.40
25200;DHT22;33094;48.782;9.162;2023-06-14T04:50:47;15.30;89.50
25200;DHT22;33094;48.782;9.162;2023-06-14T04:53:13;15.30;89.70
25200;DHT22;33094;48.782;9.162;2023-06-14T04:55:39;15.40;89.20
25200;DHT22;33094;48.782;9.162;2023-06-14T04:58:05;15.50;89.90
25200;DHT22;33094;48.782;9.162;2023-06-14T05:00:31;15.60;88.60
25200;DHT22;33094;48.782;9.162;2023-06-14T05:02:57;15.70;89.00
25200;DHT22;33094;48.782;9.162;2023-06-14T05:05:22;15.80;88.40
25200;DHT22;33094;48.782;9.162;2023-06-14T05:07:49;16.10;88.40
25200;DHT22;33094;48.782;9.162;2023-06-14T05:10:15;16.30;87.60
25200;DHT22;33094;48.782;9.162;2023-06-14T05:12:40;16.40;86.70
25200;DHT22;33094;48.782;9.162;2023-06-14T05:15:08;16.60;86.60
25200;DHT22;33094;48.782;9.162;2023-06-14T05:17:35;16.70;86.10
25200;DHT22;33094;48.782;9.162;2023-06-14T05:20:02;16.70;85.30
25200;DHT22;33094;48.782;9.162;2023-06-14T05:22:27;16.70;85.70
25200;DHT22;33094;48.782;9.162;2023-06-14T05:24:53;16.60;85.80
25200;DHT22;33094;48.782;9.162;2023-06-14T05:27:18;16.70;85.70
25200;DHT22;33094;48.782;9.162;2023-06-14T05:29:44;16.80;85.10
25200;DHT22;33094;48.782;9.162;2023-06-14T05:32:09;16.80;85.00
25200;DHT22;33094;48.782;9.162;2023-06-14T05:34:35;16.60;84.90
25200;DHT22;33094;48.782;9.162;2023-06-14T05:37:01;16.60;85.20
25200;DHT22;33094;48.782;9.162;2023-06-14T05:39:26;16.60;85.50
25200;DHT22;33094;48.782;9.162;2023-06-14T05:41:52;16.50;85.00
25200;DHT22;33094;48.782;9.162;2023-06-14T05:44:17;16.70;85.70
25200;DHT22;33094;48.782;9.162;2023-06-14T05:46:43;16.90;85.40
25200;DHT22;33094;48.782;9.162;2023-06-14T05:49:08;17.00;86.30
25200;DHT22;33094;48.782;9.162;2023-06-14T05:51:34;17.20;85.70
25200;DHT22;33094;48.782;9.162;2023-06-14T05:54:00;17.40;85.00
25200;DHT22;33094;48.782;9.162;2023-06-14T05:56:25;17.40;84.40
25200;DHT22;33094;48.782;9.162;2023-06-14T05:58:51;17.50;84.30
25200;DHT22;33094;48.782;9.162;2023-06-14T06:01:17;18.10;82.80
25200;DHT22;33094;48.782;9.162;2023-06-14T06:03:42;19.30;81.20
25200;DHT22;33094;48.782;9.162;2023-06-14T06:06:11;20.30;78.40
25200;DHT22;33094;48.782;9.162;2023-06-14T06:08:37;21.10;76.60
25200;DHT22;33094;48.782;9.162;2023-06-14T06:11:02;21.80;75.80
25200;DHT22;33094;48.782;9.162;2023-06-14T06:13:28;22.40;74.20
25200;DHT22;33094;48.782;9.162;2023-06-14T06:15:53;22.00;74.30
25200;DHT22;33094;48.782;9.162;2023-06-14T06:18:19;22.60;73.40
25200;DHT22;33094;48.782;9.162;2023-06-14T06:20:45;22.80;72.00
25200;DHT22;33094;48.782;9.162;2023-06-14T06:23:12;22.90;71.90
25200;DHT22;33094;48.782;9.162;2023-06-14T06:25:37;22.50;73.40
25200;DHT22;33094;48.782;9.162;2023-06-14T06:28:03;22.00;73.80
25200;DHT22;33094;48.782;9.162;2023-06-14T06:30:28;21.30;74.40
25200;DHT22;33094;48.782;9.162;2023-06-14T06:32:54;20.60;75.70
25200;DHT22;33094;48.782;9.162;2023-06-14T06:35:21;20.30;77.10
25200;DHT22;33094;48.782;9.162;2023-06-14T06:37:46;19.90;78.10
25200;DHT22;33094;48.782;9.162;2023-06-14T06:40:12;19.70;79.00
25200;DHT22;33094;48.782;9.162;2023-06-14T06:42:37;19.60;79.60
25200;DHT22;33094;48.782;9.162;2023-06-14T06:45:03;19.60;79.90
25200;DHT22;33094;48.782;9.162;2023-06-14T06:47:29;19.50;80.10
25200;DHT22;33094;48.782;9.162;2023-06-14T06:49:54;19.50;80.30
25200;DHT22;33094;48.782;9.162;2023-06-14T06:52:20;19.60;79.30
25200;DHT22;33094;48.782;9.162;2023-06-14T06:54:45;19.70;78.40
25200;DHT22;33094;48.782;9.162;2023-06-14T06:57:11;19.70;78.90
25200;DHT22;33094;48.782;9.162;2023-06-14T06:59:37;19.60;78.50
25200;DHT22;33094;48.782;9.162;2023-06-14T07:02:03;19.60;78.50
25200;DHT22;33094;48.782;9.162;2023-06-14T07:04:28;19.70;78.50
25200;DHT22;33094;48.782;9.162;2023-06-14T07:06:54;19.60;78.50
25200;DHT22;33094;48.782;9.162;2023-06-14T07:09:19;19.60;78.70
25200;DHT22;33094;48.782;9.162;2023-06-14T07:11:46;19.80;78.40
25200;DHT22;33094;48.782;9.162;2023-06-14T07:14:12;19.80;77.50
25200;DHT22;33094;48.782;9.162;2023-06-14T07:16:38;19.80;77.70
25200;DHT22;33094;48.782;9.162;2023-06-14T07:19:03;19.70;78.10
25200;DHT22;33094;48.782;9.162;2023-06-14T07:21:29;19.70;78.40
25200;DHT22;33094;48.782;9.162;2023-06-14T07:23:55;19.80;77.90
25200;DHT22;33094;48.782;9.162;2023-06-14T07:26:21;19.90;77.60
25200;DHT22;33094;48.782;9.162;2023-06-14T07:28:47;20.10;77.90
25200;DHT22;33094;48.782;9.162;2023-06-14T07:31:14;20.20;77.50
25200;DHT22;33094;48.782;9.162;2023-06-14T07:33:41;20.30;77.20
25200;DHT22;33094;48.782;9.162;2023-06-14T07:36:07;20.40;76.50
25200;DHT22;33094;48.782;9.162;2023-06-14T07:38:33;20.30;76.50
25200;DHT22;33094;48.782;9.162;2023-06-14T07:40:59;20.30;76.10
25200;DHT22;33094;48.782;9.162;2023-06-14T07:43:25;20.50;75.90
25200;DHT22;33094;48.782;9.162;2023-06-14T07:45:50;20.50;75.30
25200;DHT22;33094;48.782;9.162;2023-06-14T07:48:16;20.50;75.80
25200;DHT22;33094;48.782;9.162;2023-06-14T07:50:42;20.60;76.00
25200;DHT22;33094;48.782;9.162;2023-06-14T07:53:08;20.80;75.80
25200;DHT22;33094;48.782;9.162;2023-06-14T07:55:33;21.00;75.70
25200;DHT22;33094;48.782;9.162;2023-06-14T07:58:02;21.10;74.90
25200;DHT22;33094;48.782;9.162;2023-06-14T08:00:28;21.30;75.00
25200;DHT22;33094;48.782;9.162;2023-06-14T08:02:54;21.40;74.90
25200;DHT22;33094;48.782;9.162;2023-06-14T08:05:24;21.50;74.70
25200;DHT22;33094;48.782;9.162;2023-06-14T08:07:51;21.60;74.70
25200;DHT22;33094;48.782;9.162;2023-06-14T08:10:17;21.80;74.50
25200;DHT22;33094;48.782;9.162;2023-06-14T08:12:43;21.80;75.60
25200;DHT22;33094;48.782;9.162;2023-06-14T08:15:08;21.90;75.10
25200;DHT22;33094;48.782;9.162;2023-06-14T08:17:34;22.10;74.80
25200;DHT22;33094;48.782;9.162;2023-06-14T08:20:00;22.30;75.30
25200;DHT22;33094;48.782;9.162;2023-06-14T08:22:25;22.80;74.70
25200;DHT22;33094;48.782;9.162;2023-06-14T08:24:53;23.40;73.60
25200;DHT22;33094;48.782;9.162;2023-06-14T08:27:19;24.10;71.70
25200;DHT22;33094;48.782;9.162;2023-06-14T08:29:45;24.50;70.80
25200;DHT22;33094;48.782;9.162;2023-06-14T08:32:12;25.10;70.30
25200;DHT22;33094;48.782;9.162;2023-06-14T08:34:37;25.70;69.40
25200;DHT22;33094;48.782;9.162;2023-06-14T08:37:03;25.60;69.00
25200;DHT22;33094;48.782;9.162;2023-06-14T08:39:29;25.80;68.70
25200;DHT22;33094;48.782;9.162;2023-06-14T08:41:55;25.70;68.50
25200;DHT22;33094;48.782;9.162;2023-06-14T08:44:22;26.10;68.60
25200;DHT22;33094;48.782;9.162;2023-06-14T08:46:47;26.60;68.10
25200;DHT22;33094;48.782;9.162;2023-06-14T08:49:13;26.80;67.90
25200;DHT22;33094;48.782;9.162;2023-06-14T08:51:42;26.80;67.10
25200;DHT22;33094;48.782;9.162;2023-06-14T08:54:08;27.50;66.80
25200;DHT22;33094;48.782;9.162;2023-06-14T08:56:35;28.20;65.10
25200;DHT22;33094;48.782;9.162;2023-06-14T08:59:03;28.60;64.30
25200;DHT22;33094;48.782;9.162;2023-06-14T09:01:36;29.10;63.40
25200;DHT22;33094;48.782;9.162;2023-06-14T09:04:02;28.50;63.50
25200;DHT22;33094;48.782;9.162;2023-06-14T09:06:28;28.80;62.90
25200;DHT22;33094;48.782;9.162;2023-06-14T09:11:57;29.20;62.50
25200;DHT22;33094;48.782;9.162;2023-06-14T09:14:23;28.30;63.80
25200;DHT22;33094;48.782;9.162;2023-06-14T09:16:52;29.10;63.90
25200;DHT22;33094;48.782;9.162;2023-06-14T09:19:21;29.40;63.50
25200;DHT22;33094;48.782;9.162;2023-06-14T09:21:47;29.60;61.90
25200;DHT22;33094;48.782;9.162;2023-06-14T09:24:13;29.10;62.40
25200;DHT22;33094;48.782;9.162;2023-06-14T09:26:39;29.80;61.40
25200;DHT22;33094;48.782;9.162;2023-06-14T09:29:05;29.60;61.00
25200;DHT22;33094;48.782;9.162;2023-06-14T09:31:31;30.50;60.40
25200;DHT22;33094;48.782;9.162;2023-06-14T09:33:58;31.00;59.60
25200;DHT22;33094;48.782;9.162;2023-06-14T09:36:24;31.50;59.80
25200;DHT22;33094;48.782;9.162;2023-06-14T09:38:57;31.90;59.60
25200;DHT22;33094;48.782;9.162;2023-06-14T09:41:39;31.80;59.70
25200;DHT22;33094;48.782;9.162;2023-06-14T09:44:06;31.90;59.70
25200;DHT22;33094;48.782;9.162;2023-06-14T09:46:32;32.20;59.40
25200;DHT22;33094;48.782;9.162;2023-06-14T09:48:58;32.30;59.80
25200;DHT22;33094;48.782;9.162;2023-06-14T09:51:25;31.90;59.50
25200;DHT22;33094;48.782;9.162;2023-06-14T09:53:51;31.80;59.80
25200;DHT22;33094;48.782;9.162;2023-06-14T09:56:30;32.10;58.70
25200;DHT22;33094;48.782;9.162;2023-06-14T09:58:56;32.00;58.60
25200;DHT22;33094;48.782;9.162;2023-06-14T10:01:26;30.60;59.60
25200;DHT22;33094;48.782;9.162;2023-06-14T10:03:58;29.70;60.80
25200;DHT22;33094;48.782;9.162;2023-06-14T10:06:26;28.30;63.40
25200;DHT22;33094;48.782;9.162;2023-06-14T10:08:55;27.30;64.50
25200;DHT22;33094;48.782;9.162;2023-06-14T10:11:21;26.20;63.10
25200;DHT22;33094;48.782;9.162;2023-06-14T10:13:47;25.90;62.70
25200;DHT22;33094;48.782;9.162;2023-06-14T10:23:42;27.60;59.30
25200;DHT22;33094;48.782;9.162;2023-06-14T10:26:17;26.70;60.70
25200;DHT22;33094;48.782;9.162;2023-06-14T10:28:43;26.60;61.00
25200;DHT22;33094;48.782;9.162;2023-06-14T10:31:20;27.40;60.40
25200;DHT22;33094;48.782;9.162;2023-06-14T10:33:49;29.00;59.60
25200;DHT22;33094;48.782;9.162;2023-06-14T10:36:25;30.00;59.80
25200;DHT22;33094;48.782;9.162;2023-06-14T10:38:57;30.80;59.20
25200;DHT22;33094;48.782;9.162;2023-06-14T10:41:24;31.40;58.40
25200;DHT22;33094;48.782;9.162;2023-06-14T10:46:39;31.50;57.90
25200;DHT22;33094;48.782;9.162;2023-06-14T10:49:05;29.70;59.30
25200;DHT22;33094;48.782;9.162;2023-06-14T10:51:38;29.80;59.40
25200;DHT22;33094;48.782;9.162;2023-06-14T10:54:12;30.00;59.00
25200;DHT22;33094;48.782;9.162;2023-06-14T10:56:39;30.70;58.30
25200;DHT22;33094;48.782;9.162;2023-06-14T10:59:11;31.50;57.10
25200;DHT22;33094;48.782;9.162;2023-06-14T11:01:37;31.40;57.10
25200;DHT22;33094;48.782;9.162;2023-06-14T11:04:07;31.40;56.40
25200;DHT22;33094;48.782;9.162;2023-06-14T11:06:55;31.40;56.90
25200;DHT22;33094;48.782;9.162;2023-06-14T11:12:19;32.90;55.90
25200;DHT22;33094;48.782;9.162;2023-06-14T11:14:46;33.00;54.70
25200;DHT22;33094;48.782;9.162;2023-06-14T11:17:13;33.30;55.20
25200;DHT22;33094;48.782;9.162;2023-06-14T11:19:39;32.60;54.90
25200;DHT22;33094;48.782;9.162;2023-06-14T11:22:05;32.60;55.20
25200;DHT22;33094;48.782;9.162;2023-06-14T11:24:32;33.20;54.70
25200;DHT22;33094;48.782;9.162;2023-06-14T11:26:58;33.30;53.90
25200;DHT22;33094;48.782;9.162;2023-06-14T11:29:25;32.90;54.00
25200;DHT22;33094;48.782;9.162;2023-06-14T11:34:40;32.50;54.00
25200;DHT22;33094;48.782;9.162;2023-06-14T11:37:19;31.40;55.40
25200;DHT22;33094;48.782;9.162;2023-06-14T11:40:22;31.70;54.60
25200;DHT22;33094;48.782;9.162;2023-06-14T11:49:02;32.30;53.10
25200;DHT22;33094;48.782;9.162;2023-06-14T11:58:42;32.60;53.00
25200;DHT22;33094;48.782;9.162;2023-06-14T12:01:17;32.30;52.70
25200;DHT22;33094;48.782;9.162;2023-06-14T12:04:05;32.60;53.40
25200;DHT22;33094;48.782;9.162;2023-06-14T12:06:31;32.50;52.90
25200;DHT22;33094;48.782;9.162;2023-06-14T12:09:04;31.20;54.70
25200;DHT22;33094;48.782;9.162;2023-06-14T12:11:33;31.70;54.40
25200;DHT22;33094;48.782;9.162;2023-06-14T12:13:59;32.30;54.10
25200;DHT22;33094;48.782;9.162;2023-06-14T12:16:29;32.10;54.40
25200;DHT22;33094;48.782;9.162;2023-06-14T12:18:56;31.90;53.70
25200;DHT22;33094;48.782;9.162;2023-06-14T12:21:23;31.90;54.50
25200;DHT22;33094;48.782;9.162;2023-06-14T12:23:49;32.00;53.50
25200;DHT22;33094;48.782;9.162;2023-06-14T12:26:17;31.10;54.30
25200;DHT22;33094;48.782;9.162;2023-06-14T12:28:46;30.90;55.10
25200;DHT22;33094;48.782;9.162;2023-06-14T12:31:13;30.60;55.30
25200;DHT22;33094;48.782;9.162;2023-06-14T12:33:39;31.20;55.20
25200;DHT22;33094;48.782;9.162;2023-06-14T12:36:06;31.40;54.80
25200;DHT22;33094;48.782;9.162;2023-06-14T12:38:32;31.80;53.70
25200;DHT22;33094;48.782;9.162;2023-06-14T12:40:58;31.70;53.50
25200;DHT22;33094;48.782;9.162;2023-06-14T12:43:24;31.10;54.60
25200;DHT22;33094;48.782;9.162;2023-06-14T12:45:50;31.30;55.40
25200;DHT22;33094;48.782;9.162;2023-06-14T12:48:15;32.00;54.90
25200;DHT22;33094;48.782;9.162;2023-06-14T12:50:41;29.80;55.90
25200;DHT22;33094;48.782;9.162;2023-06-14T12:53:07;30.30;56.60
25200;DHT22;33094;48.782;9.162;2023-06-14T12:55:33;30.20;56.20
25200;DHT22;33094;48.782;9.162;2023-06-14T12:57:59;29.50;56.80
25200;DHT22;33094;48.782;9.162;2023-06-14T13:00:25;29.70;56.20
25200;DHT22;33094;48.782;9.162;2023-06-14T13:02:56;29.50;56.60
25200;DHT22;33094;48.782;9.162;2023-06-14T13:05:22;28.90;57.60
25200;DHT22;33094;48.782;9.162;2023-06-14T13:07:48;28.20;57.80
25200;DHT22;33094;48.782;9.162;2023-06-14T13:10:13;28.60;57.50
25200;DHT22;33094;48.782;9.162;2023-06-14T13:12:39;30.00;56.60
25200;DHT22;33094;48.782;9.162;2023-06-14T13:15:06;30.60;55.10
25200;DHT22;33094;48.782;9.162;2023-06-14T13:17:33;30.40;55.20
25200;DHT22;33094;48.782;9.162;2023-06-14T13:20:07;30.00;56.20
25200;DHT22;33094;48.782;9.162;2023-06-14T13:22:36;29.50;56.40
25200;DHT22;33094;48.782;9.162;2023-06-14T13:25:02;29.10;57.30
25200;DHT22;33094;48.782;9.162;2023-06-14T13:27:29;28.60;57.30
25200;DHT22;33094;48.782;9.162;2023-06-14T13:29:54;28.40;57.90
25200;DHT22;33094;48.782;9.162;2023-06-14T13:32:21;27.90;58.90
25200;DHT22;33094;48.782;9.162;2023-06-14T13:34:47;27.90;59.60
25200;DHT22;33094;48.782;9.162;2023-06-14T13:37:12;27.90;59.70
25200;DHT22;33094;48.782;9.162;2023-06-14T13:39:38;27.90;59.50
25200;DHT22;33094;48.782;9.162;2023-06-14T13:42:04;27.60;59.40
25200;DHT22;33094;48.782;9.162;2023-06-14T13:44:30;27.80;59.70
25200;DHT22;33094;48.782;9.162;2023-06-14T13:46:56;27.90;59.30
25200;DHT22;33094;48.782;9.162;2023-06-14T13:49:22;28.00;59.10
25200;DHT22;33094;48.782;9.162;2023-06-14T13:51:48;27.30;59.80
25200;DHT22;33094;48.782;9.162;2023-06-14T13:54:13;27.40;59.90
25200;DHT22;33094;48.782;9.162;2023-06-14T13:56:44;27.30;59.80
25200;DHT22;33094;48.782;9.162;2023-06-14T13:59:09;27.30;59.60
25200;DHT22;33094;48.782;9.162;2023-06-14T14:01:36;27.50;59.70
25200;DHT22;33094;48.782;9.162;2023-06-14T14:04:01;27.60;59.40
25200;DHT22;33094;48.782;9.162;2023-06-14T14:06:27;27.70;59.70
25200;DHT22;33094;48.782;9.162;2023-06-14T14:08:53;27.70;59.40
25200;DHT22;33094;48.782;9.162;2023-06-14T14:11:19;27.60;59.20
25200;DHT22;33094;48.782;9.162;2023-06-14T14:13:45;27.30;59.50
25200;DHT22;33094;48.782;9.162;2023-06-14T14:16:12;27.00;60.20
25200;DHT22;33094;48.782;9.162;2023-06-14T14:18:38;26.60;61.00
25200;DHT22;33094;48.782;9.162;2023-06-14T14:21:03;26.70;61.50
25200;DHT22;33094;48.782;9.162;2023-06-14T14:23:29;27.10;61.00
25200;DHT22;33094;48.782;9.162;2023-06-14T14:25:54;27.50;60.50
25200;DHT22;33094;48.782;9.162;2023-06-14T14:28:20;27.50;60.60
25200;DHT22;33094;48.782;9.162;2023-06-14T14:30:46;27.40;61.10
25200;DHT22;33094;48.782;9.162;2023-06-14T14:33:15;27.30;61.10
25200;DHT22;33094;48.782;9.162;2023-06-14T14:35:42;27.50;61.20
25200;DHT22;33094;48.782;9.162;2023-06-14T14:38:08;27.20;61.30
25200;DHT22;33094;48.782;9.162;2023-06-14T14:40:34;26.60;61.80
25200;DHT22;33094;48.782;9.162;2023-06-14T14:43:00;26.40;62.40
25200;DHT22;33094;48.782;9.162;2023-06-14T14:45:25;26.40;62.10
25200;DHT22;33094;48.782;9.162;2023-06-14T14:47:51;26.30;62.30
25200;DHT22;33094;48.782;9.162;2023-06-14T14:50:16;26.40;62.00
25200;DHT22;33094;48.782;9.162;2023-06-14T14:52:45;26.70;61.50
25200;DHT22;33094;48.782;9.162;2023-06-14T14:55:11;26.60;61.40
25200;DHT22;33094;48.782;9.162;2023-06-14T14:57:36;26.80;61.50
25200;DHT22;33094;48.782;9.162;2023-06-14T15:00:02;26.90;61.20
25200;DHT22;33094;48.782;9.162;2023-06-14T15:02:28;27.00;61.50
25200;DHT22;33094;48.782;9.162;2023-06-14T15:04:54;27.10;60.50
25200;DHT22;33094;48.782;9.162;2023-06-14T15:07:22;27.10;60.90
25200;DHT22;33094;48.782;9.162;2023-06-14T15:09:48;27.30;60.40
25200;DHT22;33094;48.782;9.162;2023-06-14T15:12:16;27.20;60.90
25200;DHT22;33094;48.782;9.162;2023-06-14T15:14:41;27.10;61.50
25200;DHT22;33094;48.782;9.162;2023-06-14T15:17:07;27.10;61.50
25200;DHT22;33094;48.782;9.162;2023-06-14T15:19:32;27.00;61.60
25200;DHT22;33094;48.782;9.162;2023-06-14T15:21:59;27.00;61.80
25200;DHT22;33094;48.782;9.162;2023-06-14T15:24:25;27.00;61.70
25200;DHT22;33094;48.782;9.162;2023-06-14T15:26:50;27.00;61.80
25200;DHT22;33094;48.782;9.162;2023-06-14T15:29:16;27.20;62.30
25200;DHT22;33094;48.782;9.162;2023-06-14T15:31:41;27.00;61.80
25200;DHT22;33094;48.782;9.162;2023-06-14T15:34:07;27.10;62.00
25200;DHT22;33094;48.782;9.162;2023-06-14T15:36:32;27.00;61.80
25200;DHT22;33094;48.782;9.162;2023-06-14T15:38:58;27.00;62.00
25200;DHT22;33094;48.782;9.162;2023-06-14T15:41:23;26.90;62.10
25200;DHT22;33094;48.782;9.162;2023-06-14T15:43:49;26.80;62.00
25200;DHT22;33094;48.782;9.162;2023-06-14T15:46:14;26.70;62.00
25200;DHT22;33094;48.782;9.162;2023-06-14T15:48:40;26.60;62.10
25200;DHT22;33094;48.782;9.162;2023-06-14T15:51:05;26.60;62.20
25200;DHT22;33094;48.782;9.162;2023-06-14T15:53:31;26.40;62.20
25200;DHT22;33094;48.782;9.162;2023-06-14T15:55:56;26.30;62.40
25200;DHT22;33094;48.782;9.162;2023-06-14T15:58:22;26.20;62.40
25200;DHT22;33094;48.782;9.162;2023-06-14T16:00:47;26.10;62.00
25200;DHT22;33094;48.782;9.162;2023-06-14T16:03:13;26.10;62.00
25200;DHT22;33094;48.782;9.162;2023-06-14T16:05:38;26.20;62.00
25200;DHT22;33094;48.782;9.162;2023-06-14T16:08:04;26.00;62.40
25200;DHT22;33094;48.782;9.162;2023-06-14T16:10:30;26.10;62.10